Time;durP1;ratioP1;P1;durP2;ratioP2;P2;SDS_P1;SDS_P2;PMS_P1;PMS_P2;Temp;Humidity;BMP_temperature;BMP_pressure;BME280_temperature;BME280_humidity;BME280_pressure;Samples;Min_cycle;Max_cycle;Signal;HPM_P1;HPM_P2
2021/12/15 00:00:28;;;;;;;4.50;3.42;;;1.50;99.90;;;;;;5000985;28;20072;-80
2021/12/15 00:02:58;;;;;;;5.85;3.45;;;1.80;99.90;;;;;;5014267;28;20049;-80
2021/12/15 00:05:29;;;;;;;7.60;3.65;;;1.70;99.90;;;;;;5022082;28;20046;-82
2021/12/15 00:08:00;;;;;;;5.95;4.20;;;1.30;99.90;;;;;;4993728;28;20495;-81
2021/12/15 00:10:30;;;;;;;4.35;3.25;;;2.10;99.90;;;;;;4995370;28;20538;-81
2021/12/15 00:12:58;;;;;;;3.80;3.05;;;1.90;99.90;;;;;;5004567;28;20060;-81
2021/12/15 00:15:29;;;;;;;6.88;3.55;;;2.30;99.90;;;;;;5002624;28;20046;-81
2021/12/15 00:17:58;;;;;;;6.70;3.40;;;1.90;99.90;;;;;;4995734;28;20050;-83
2021/12/15 00:20:27;;;;;;;4.07;3.22;;;1.40;99.90;;;;;;5000621;28;20054;-82
2021/12/15 00:22:56;;;;;;;6.70;2.70;;;1.60;99.90;;;;;;5008243;28;20049;-82
2021/12/15 00:25:29;;;;;;;6.80;3.00;;;1.80;99.90;;;;;;4996088;28;20045;-82
2021/12/15 00:27:59;;;;;;;4.93;3.08;;;1.80;99.90;;;;;;4995061;28;20059;-83
2021/12/15 00:30:29;;;;;;;4.28;3.40;;;2.40;99.90;;;;;;5008633;28;20154;-82
2021/12/15 00:32:56;;;;;;;7.57;3.55;;;1.90;99.90;;;;;;5002992;28;20053;-81
2021/12/15 00:35:25;;;;;;;7.90;4.18;;;2.10;99.90;;;;;;5026006;28;20038;-78
2021/12/15 00:37:53;;;;;;;4.85;3.35;;;1.30;99.90;;;;;;5001884;28;20506;-79
2021/12/15 00:40:25;;;;;;;4.63;3.92;;;2.20;99.90;;;;;;5029032;28;20050;-78
2021/12/15 00:42:54;;;;;;;7.05;4.38;;;2.10;99.90;;;;;;4998362;28;20085;-78
2021/12/15 00:45:22;;;;;;;4.40;3.38;;;2.10;99.90;;;;;;4992879;28;20296;-79
2021/12/15 00:47:51;;;;;;;4.85;3.53;;;1.70;99.90;;;;;;5026789;28;20485;-79
2021/12/15 00:50:27;;;;;;;5.38;3.90;;;1.30;99.90;;;;;;5009710;28;20061;-79
2021/12/15 00:52:55;;;;;;;6.20;4.05;;;2.30;99.90;;;;;;4995593;28;20046;-79
2021/12/15 00:55:26;;;;;;;4.82;3.90;;;1.80;99.90;;;;;;4996662;28;20477;-79
2021/12/15 00:57:54;;;;;;;6.70;4.18;;;1.70;99.90;;;;;;5008857;28;20045;-80
2021/12/15 01:00:26;;;;;;;7.75;4.75;;;2.00;99.90;;;;;;5000998;28;20160;-79
2021/12/15 01:02:56;;;;;;;7.60;4.95;;;2.60;99.90;;;;;;5026562;28;20493;-79
2021/12/15 01:05:30;;;;;;;7.22;4.47;;;2.30;99.90;;;;;;5023683;28;20117;-79
2021/12/15 01:07:57;;;;;;;;;;;1.50;99.90;;;;;;5003113;28;20058;-78
2021/12/15 01:10:33;;;;;;;6.00;4.40;;;2.20;99.90;;;;;;4993227;28;19926;-79
2021/12/15 01:21:26;;;;;;;9.07;4.88;;;2.20;99.90;;;;;;4996543;28;20077;-79
2021/12/15 01:23:54;;;;;;;6.00;4.95;;;2.00;99.90;;;;;;5012254;28;20034;-80
2021/12/15 01:26:21;;;;;;;9.18;5.30;;;1.60;99.90;;;;;;5013289;28;20151;-80
2021/12/15 01:28:49;;;;;;;12.90;5.43;;;2.00;99.90;;;;;;5009573;28;20038;-80
2021/12/15 01:31:17;;;;;;;11.07;5.57;;;2.00;99.90;;;;;;4993751;28;20074;-79
2021/12/15 01:42:48;;;;;;;16.63;6.43;;;2.30;99.90;;;;;;5013042;24;20117;-81
2021/12/15 01:48:02;;;;;;;18.02;6.15;;;2.80;99.90;;;;;;4860531;29;20531;-81
2021/12/15 01:50:33;;;;;;;16.80;7.32;;;2.60;99.90;;;;;;4860693;29;20141;-80
2021/12/15 01:53:01;;;;;;;17.55;5.95;;;2.20;99.90;;;;;;4858398;29;20505;-79
2021/12/15 01:55:30;;;;;;;26.17;9.75;;;1.70;99.90;;;;;;4858148;29;20502;-80
2021/12/15 01:57:59;;;;;;;24.92;6.85;;;2.50;99.90;;;;;;4857986;29;20066;-79
2021/12/15 02:00:33;;;;;;;16.48;7.85;;;2.20;99.90;;;;;;4850449;29;20085;-79
2021/12/15 02:03:00;;;;;;;21.13;7.03;;;2.20;99.90;;;;;;4857435;29;20678;-79
2021/12/15 02:05:32;;;;;;;18.02;6.82;;;1.60;99.90;;;;;;4854426;29;20060;-79
2021/12/15 02:08:01;;;;;;;20.25;7.93;;;2.40;99.90;;;;;;4841927;29;20412;-79
2021/12/15 02:10:34;;;;;;;24.52;7.07;;;2.10;99.90;;;;;;4859293;29;20053;-79
2021/12/15 02:13:23;;;;;;;18.13;6.43;;;2.40;99.90;;;;;;4858343;29;20114;-79
2021/12/15 02:15:55;;;;;;;17.13;6.13;;;2.50;99.90;;;;;;4859974;29;20399;-80
2021/12/15 02:18:27;;;;;;;18.85;6.45;;;2.40;99.90;;;;;;4840158;29;20057;-80
2021/12/15 02:21:01;;;;;;;14.35;6.05;;;2.40;99.90;;;;;;4857754;29;20086;-79
2021/12/15 02:23:35;;;;;;;18.45;8.10;;;2.40;99.90;;;;;;4858113;29;20049;-79
2021/12/15 02:26:10;;;;;;;15.10;6.78;;;3.00;99.90;;;;;;4855734;29;20411;-79
2021/12/15 02:28:39;;;;;;;26.10;7.43;;;2.50;99.90;;;;;;4852372;29;20531;-81
2021/12/15 02:31:14;;;;;;;28.63;7.90;;;2.80;99.90;;;;;;4858500;29;20050;-81
2021/12/15 02:39:14;;;;;;;12.35;6.45;;;2.90;99.90;;;;;;4856804;29;20811;-80
2021/12/15 02:41:44;;;;;;;14.85;6.55;;;1.70;99.90;;;;;;4857918;29;20057;-79
2021/12/15 02:44:17;;;;;;;14.00;5.93;;;2.90;99.90;;;;;;4870119;29;20057;-80
2021/12/15 02:46:46;;;;;;;;;;;2.50;99.90;;;;;;4857751;29;20542;-79
2021/12/15 02:49:18;;;;;;;8.88;4.97;;;2.70;99.90;;;;;;4858213;29;19944;-80
2021/12/15 02:51:51;;;;;;;16.83;6.00;;;2.70;99.90;;;;;;4857876;29;20045;-80
2021/12/15 02:54:22;;;;;;;7.95;4.50;;;2.00;99.90;;;;;;4858941;29;20060;-80
2021/12/15 02:56:53;;;;;;;7.07;4.13;;;2.80;99.90;;;;;;4858954;29;20470;-79
2021/12/15 02:59:25;;;;;;;7.80;4.30;;;2.70;99.90;;;;;;4858451;29;20064;-80
2021/12/15 03:02:00;;;;;;;5.88;3.95;;;2.50;99.90;;;;;;4857599;29;20160;-80
2021/12/15 03:04:39;;;;;;;6.40;4.53;;;2.80;99.90;;;;;;4851337;29;20061;-79
2021/12/15 03:07:15;;;;;;;7.55;4.75;;;3.00;99.90;;;;;;4856976;29;20102;-81
2021/12/15 03:15:33;;;;;;;6.90;4.47;;;2.60;99.90;;;;;;4821371;29;20054;-80
2021/12/15 03:18:07;;;;;;;11.02;4.32;;;2.90;99.90;;;;;;4857693;29;20057;-80
2021/12/15 03:20:41;;;;;;;6.25;3.80;;;2.60;99.90;;;;;;4859730;29;20517;-80
2021/12/15 03:23:12;;;;;;;8.70;4.43;;;2.50;99.90;;;;;;4870475;29;20053;-80
2021/12/15 03:25:41;;;;;;;6.40;3.70;;;2.30;99.90;;;;;;4873192;29;20058;-80
2021/12/15 03:33:56;;;;;;;5.45;3.30;;;2.90;99.90;;;;;;4856738;29;20057;-80
2021/12/15 03:36:39;;;;;;;6.53;3.80;;;3.00;99.90;;;;;;4859602;29;20057;-80
2021/12/15 03:39:14;;;;;;;7.00;3.80;;;2.70;99.90;;;;;;4859279;29;20542;-78
2021/12/15 03:41:42;;;;;;;5.75;3.22;;;3.20;99.90;;;;;;4855203;29;20080;-78
2021/12/15 03:44:10;;;;;;;5.85;3.58;;;2.60;99.90;;;;;;4857714;29;20102;-79
2021/12/15 03:46:38;;;;;;;6.05;3.60;;;2.60;99.90;;;;;;4862349;29;20053;-80
2021/12/15 03:49:06;;;;;;;5.10;3.22;;;2.20;99.90;;;;;;4862473;29;20132;-80
2021/12/15 03:51:35;;;;;;;7.93;4.07;;;2.70;99.90;;;;;;4861418;29;20814;-80
2021/12/15 03:54:05;;;;;;;4.53;3.95;;;2.60;99.90;;;;;;4856717;29;20053;-79
2021/12/15 03:56:39;;;;;;;5.78;3.83;;;2.80;99.90;;;;;;4862063;29;20147;-79
2021/12/15 03:59:07;;;;;;;5.88;4.00;;;2.60;99.90;;;;;;4861162;29;20148;-80
2021/12/15 04:01:36;;;;;;;8.57;4.55;;;2.60;99.90;;;;;;4858682;29;20505;-81
2021/12/15 04:04:06;;;;;;;6.38;3.97;;;2.60;99.90;;;;;;4860954;29;20049;-81
2021/12/15 04:06:38;;;;;;;4.50;3.17;;;2.60;99.90;;;;;;4862684;29;20517;-81
2021/12/15 04:09:12;;;;;;;8.25;3.45;;;2.10;99.90;;;;;;4860971;29;20045;-80
2021/12/15 04:11:43;;;;;;;4.70;3.75;;;3.00;99.90;;;;;;4860902;29;20140;-81
2021/12/15 04:14:20;;;;;;;11.88;3.92;;;2.60;99.90;;;;;;4862160;29;20132;-82
2021/12/15 04:17:01;;;;;;;6.40;3.60;;;2.10;99.90;;;;;;4861765;29;20053;-80
2021/12/15 04:19:31;;;;;;;5.85;3.63;;;2.00;99.90;;;;;;4861078;29;20049;-82
2021/12/15 04:21:59;;;;;;;5.40;3.80;;;2.80;99.90;;;;;;4861688;29;20057;-81
2021/12/15 04:24:28;;;;;;;5.68;3.25;;;2.20;99.90;;;;;;4857927;29;20110;-81
2021/12/15 04:27:00;;;;;;;4.93;2.80;;;2.60;99.90;;;;;;4856177;29;20603;-81
2021/12/15 04:29:29;;;;;;;4.65;3.45;;;2.60;99.90;;;;;;4859373;29;20057;-80
2021/12/15 04:32:04;;;;;;;3.67;3.20;;;2.70;99.90;;;;;;4861879;29;20149;-80
2021/12/15 04:34:32;;;;;;;5.60;3.15;;;2.60;99.90;;;;;;4857263;29;20061;-81
2021/12/15 04:37:00;;;;;;;3.70;2.95;;;2.60;99.90;;;;;;4860416;29;20080;-81
2021/12/15 04:39:29;;;;;;;3.75;2.55;;;2.80;99.90;;;;;;4857160;29;20081;-80
2021/12/15 04:42:02;;;;;;;7.88;2.83;;;1.70;99.90;;;;;;4858649;29;20081;-83
2021/12/15 04:44:33;;;;;;;3.63;2.35;;;2.60;99.90;;;;;;4861067;29;20086;-81
2021/12/15 04:47:07;;;;;;;1.85;1.75;;;2.70;99.90;;;;;;4855241;29;20106;-81
2021/12/15 04:49:39;;;;;;;4.75;2.53;;;2.70;99.90;;;;;;4859442;29;20065;-82
2021/12/15 04:52:17;;;;;;;1.80;1.70;;;2.70;99.90;;;;;;4860494;29;20053;-82
2021/12/15 04:54:45;;;;;;;3.97;2.05;;;2.70;99.90;;;;;;4858945;29;20131;-82
2021/12/15 04:57:18;;;;;;;5.30;2.22;;;2.70;99.90;;;;;;4854218;29;20067;-82
2021/12/15 04:59:47;;;;;;;2.13;1.95;;;2.70;99.90;;;;;;4861680;29;20053;-83
2021/12/15 05:02:16;;;;;;;2.65;2.08;;;2.70;99.90;;;;;;4861457;29;20069;-84
2021/12/15 05:04:54;;;;;;;5.90;2.15;;;3.00;99.90;;;;;;4859609;29;20446;-83
2021/12/15 05:07:22;;;;;;;1.60;1.50;;;2.20;99.90;;;;;;4861695;29;20459;-83
2021/12/15 05:09:51;;;;;;;1.67;1.58;;;2.70;99.90;;;;;;4861293;29;20089;-82
2021/12/15 05:12:21;;;;;;;1.88;1.55;;;2.90;99.90;;;;;;4860443;29;20058;-82
2021/12/15 05:14:49;;;;;;;5.07;1.65;;;2.80;99.90;;;;;;4857861;29;20140;-81
2021/12/15 05:17:18;;;;;;;3.28;1.92;;;3.10;99.90;;;;;;4853755;29;20060;-81
2021/12/15 05:19:47;;;;;;;3.92;1.92;;;2.80;99.90;;;;;;4858668;29;20053;-81
2021/12/15 05:22:16;;;;;;;1.95;1.75;;;2.60;99.90;;;;;;4849978;29;20510;-81
2021/12/15 05:24:44;;;;;;;5.13;3.05;;;2.40;99.90;;;;;;4849494;29;20110;-80
2021/12/15 05:27:15;;;;;;;3.63;1.90;;;2.10;99.90;;;;;;4851505;29;20054;-79
2021/12/15 05:29:47;;;;;;;1.92;1.80;;;2.90;99.90;;;;;;4860828;29;20149;-80
2021/12/15 05:32:18;;;;;;;2.28;1.90;;;2.60;99.90;;;;;;4852873;29;20494;-80
2021/12/15 05:34:48;;;;;;;7.63;1.80;;;2.70;99.90;;;;;;4852371;29;20061;-78
2021/12/15 05:37:18;;;;;;;6.43;2.35;;;2.30;99.90;;;;;;4861152;29;20077;-80
2021/12/15 05:39:47;;;;;;;3.38;2.33;;;2.80;99.90;;;;;;4843711;29;20054;-80
2021/12/15 05:42:14;;;;;;;2.05;1.85;;;2.70;99.90;;;;;;4854473;29;20062;-79
2021/12/15 05:44:44;;;;;;;1.20;1.10;;;2.40;99.90;;;;;;4858266;29;20057;-79
2021/12/15 05:47:12;;;;;;;1.55;1.45;;;2.60;99.90;;;;;;4858253;29;20562;-80
2021/12/15 05:49:40;;;;;;;2.72;1.70;;;2.50;99.90;;;;;;4858964;29;20049;-81
2021/12/15 05:52:09;;;;;;;1.88;1.77;;;2.60;99.90;;;;;;4859482;29;20072;-80
2021/12/15 05:54:41;;;;;;;1.60;1.50;;;2.50;99.90;;;;;;4859760;29;20046;-81
2021/12/15 05:57:09;;;;;;;2.67;1.65;;;2.60;99.90;;;;;;4852765;29;20049;-80
2021/12/15 05:59:37;;;;;;;2.10;1.08;;;2.50;99.90;;;;;;4854586;29;20060;-81
2021/12/15 06:02:08;;;;;;;2.95;1.58;;;2.90;99.90;;;;;;4855702;29;20084;-79
2021/12/15 06:04:36;;;;;;;7.53;2.00;;;2.00;99.90;;;;;;4844835;29;20049;-79
2021/12/15 06:07:06;;;;;;;6.28;2.25;;;2.90;99.90;;;;;;4856174;29;20051;-80
2021/12/15 06:09:34;;;;;;;3.40;2.20;;;2.80;99.90;;;;;;4841916;29;20077;-79
2021/12/15 06:12:04;;;;;;;3.42;1.90;;;1.70;99.90;;;;;;4842194;29;20057;-78
2021/12/15 06:14:33;;;;;;;2.95;2.20;;;2.30;99.90;;;;;;4858152;29;20053;-79
2021/12/15 06:17:07;;;;;;;1.73;1.52;;;2.50;99.90;;;;;;4856724;29;20104;-78
2021/12/15 06:19:35;;;;;;;4.70;2.13;;;2.30;99.90;;;;;;4850886;29;20061;-78
2021/12/15 06:22:05;;;;;;;2.67;2.47;;;2.30;99.90;;;;;;4859504;29;20069;-79
2021/12/15 06:24:36;;;;;;;2.78;2.35;;;2.50;99.90;;;;;;4858336;29;20533;-78
2021/12/15 06:27:10;;;;;;;2.55;2.35;;;2.80;99.90;;;;;;4870820;29;20072;-79
2021/12/15 06:29:38;;;;;;;1.65;1.55;;;2.90;99.90;;;;;;4858946;29;20461;-80
2021/12/15 06:32:08;;;;;;;4.28;1.95;;;2.40;99.90;;;;;;4858340;29;20110;-78
2021/12/15 06:34:35;;;;;;;4.10;2.53;;;2.60;99.90;;;;;;4858984;29;20061;-81
2021/12/15 06:37:03;;;;;;;3.50;1.95;;;2.70;99.90;;;;;;4858433;29;20073;-80
2021/12/15 06:39:33;;;;;;;3.53;2.05;;;2.40;99.90;;;;;;4859578;29;20447;-83
2021/12/15 06:42:02;;;;;;;5.45;2.33;;;2.40;99.90;;;;;;4851906;29;20058;-81
2021/12/15 06:44:30;;;;;;;2.13;1.90;;;2.30;99.90;;;;;;4848297;29;20052;-80
2021/12/15 06:58:12;;;;;;;3.22;2.38;;;2.40;99.90;;;;;;4848558;29;20046;-81
2021/12/15 07:00:44;;;;;;;3.05;1.80;;;1.60;99.90;;;;;;4846566;29;20056;-80
2021/12/15 07:03:13;;;;;;;3.13;2.20;;;2.40;99.90;;;;;;4859601;29;20061;-83
2021/12/15 07:05:43;;;;;;;3.50;1.92;;;2.40;99.90;;;;;;4837389;29;20057;-83
2021/12/15 07:08:13;;;;;;;3.35;1.77;;;3.00;99.90;;;;;;4855548;29;20046;-84
2021/12/15 07:10:47;;;;;;;4.80;1.90;;;2.50;99.90;;;;;;4856977;29;20148;-82
2021/12/15 07:13:16;;;;;;;3.10;2.05;;;2.50;99.90;;;;;;4859139;29;20057;-83
2021/12/15 07:15:48;;;;;;;7.97;2.88;;;3.20;99.90;;;;;;4867273;29;20113;-84
2021/12/15 07:18:26;;;;;;;4.53;1.88;;;2.90;99.90;;;;;;4860808;29;20059;-83
2021/12/15 07:21:05;;;;;;;5.45;2.25;;;3.10;99.90;;;;;;4872544;29;21107;-83
2021/12/15 07:23:34;;;;;;;3.15;2.45;;;2.80;99.90;;;;;;4869584;29;20065;-83
2021/12/15 07:26:02;;;;;;;3.80;2.20;;;2.80;99.90;;;;;;4841865;29;20057;-83
2021/12/15 07:28:30;;;;;;;5.30;2.30;;;3.30;99.90;;;;;;4873177;29;20522;-85
2021/12/15 07:30:58;;;;;;;6.32;2.20;;;2.90;99.90;;;;;;4877332;29;20060;-84
2021/12/15 07:33:27;;;;;;;4.13;2.20;;;3.20;99.90;;;;;;4884443;29;20108;-83
2021/12/15 07:35:56;;;;;;;2.58;2.05;;;3.10;99.90;;;;;;4888960;29;20430;-83
2021/12/15 07:38:24;;;;;;;2.78;2.45;;;3.50;99.90;;;;;;4891209;29;20113;-83
2021/12/15 07:40:53;;;;;;;4.32;2.60;;;2.90;99.90;;;;;;4876757;29;20722;-84
2021/12/15 07:43:25;;;;;;;3.80;2.88;;;2.70;99.90;;;;;;4877088;29;20053;-83
2021/12/15 07:45:57;;;;;;;4.25;3.38;;;2.60;99.90;;;;;;4875852;29;20057;-82
2021/12/15 07:48:29;;;;;;;6.68;2.58;;;2.80;99.90;;;;;;4877053;29;20076;-84
2021/12/15 07:51:00;;;;;;;5.77;2.30;;;2.80;99.90;;;;;;4875421;29;20059;-82
2021/12/15 07:53:29;;;;;;;4.57;2.28;;;2.80;99.90;;;;;;4876696;29;20057;-79
2021/12/15 07:55:58;;;;;;;2.10;1.90;;;2.70;99.90;;;;;;4890974;29;20056;-81
2021/12/15 07:58:27;;;;;;;5.95;2.42;;;2.80;99.90;;;;;;4882100;29;20046;-81
2021/12/15 08:00:59;;;;;;;7.22;2.95;;;2.80;99.90;;;;;;4870254;29;20057;-81
2021/12/15 08:03:30;;;;;;;8.68;4.40;;;2.20;99.90;;;;;;4864409;29;20518;-82
2021/12/15 08:06:03;;;;;;;15.43;7.75;;;3.20;99.90;;;;;;4867177;29;20577;-80
2021/12/15 08:08:32;;;;;;;18.73;8.55;;;2.70;99.90;;;;;;4884303;29;20622;-81
2021/12/15 08:11:03;;;;;;;31.55;11.00;;;2.70;99.90;;;;;;4869801;29;20428;-84
2021/12/15 08:13:35;;;;;;;33.67;10.70;;;2.80;99.90;;;;;;4867571;29;20057;-82
2021/12/15 08:16:03;;;;;;;15.17;7.23;;;2.70;99.90;;;;;;4865107;29;20061;-84
2021/12/15 08:18:31;;;;;;;31.70;8.13;;;3.00;99.90;;;;;;4867151;29;20304;-83
2021/12/15 08:21:04;;;;;;;31.27;8.35;;;2.70;99.90;;;;;;4866766;29;20414;-83
2021/12/15 08:23:34;;;;;;;22.90;7.82;;;3.00;99.90;;;;;;4867685;29;20049;-83
2021/12/15 08:26:02;;;;;;;43.28;9.88;;;2.70;99.90;;;;;;4866810;29;20049;-81
2021/12/15 08:28:30;;;;;;;23.02;7.05;;;2.70;99.90;;;;;;4853496;29;20136;-82
2021/12/15 08:30:59;;;;;;;12.95;6.88;;;3.00;99.90;;;;;;4870440;29;20064;-83
2021/12/15 08:33:29;;;;;;;7.53;4.45;;;2.60;99.90;;;;;;4871236;29;20054;-82
2021/12/15 08:36:04;;;;;;;9.77;4.70;;;3.50;99.90;;;;;;4873421;29;20139;-82
2021/12/15 08:38:34;;;;;;;7.20;3.63;;;3.00;99.90;;;;;;4878934;29;20147;-83
2021/12/15 08:41:05;;;;;;;9.25;4.10;;;2.70;99.90;;;;;;4873547;29;20487;-79
2021/12/15 08:43:37;;;;;;;10.00;4.65;;;2.20;99.90;;;;;;4888374;29;20133;-83
2021/12/15 08:46:08;;;;;;;9.02;3.95;;;2.40;99.90;;;;;;4874658;29;20045;-85
2021/12/15 08:48:38;;;;;;;5.95;3.95;;;3.10;99.90;;;;;;4872864;29;20053;-84
2021/12/15 08:51:16;;;;;;;7.65;3.50;;;2.70;99.90;;;;;;4868283;29;20133;-85
2021/12/15 08:53:47;;;;;;;6.97;3.00;;;2.30;99.90;;;;;;4869996;29;20052;-84
2021/12/15 08:56:15;;;;;;;9.23;3.65;;;2.70;99.90;;;;;;4876836;29;20113;-83
2021/12/15 08:58:43;;;;;;;22.50;5.65;;;2.40;99.90;;;;;;4868815;29;20524;-81
2021/12/15 09:01:10;;;;;;;15.23;6.05;;;3.10;99.90;;;;;;4875865;29;20081;-84
2021/12/15 09:03:42;;;;;;;14.65;5.95;;;2.90;99.90;;;;;;4872263;29;20056;-84
2021/12/15 09:06:13;;;;;;;27.25;7.18;;;3.20;99.90;;;;;;4868186;29;20105;-81
2021/12/15 09:08:44;;;;;;;12.85;6.85;;;3.10;99.90;;;;;;4874590;29;20057;-81
2021/12/15 09:11:15;;;;;;;11.73;5.10;;;3.20;99.90;;;;;;4866619;29;20053;-81
2021/12/15 09:13:47;;;;;;;9.02;5.63;;;2.90;99.90;;;;;;4870400;29;20482;-82
2021/12/15 09:16:15;;;;;;;11.82;5.57;;;3.10;99.90;;;;;;4871429;29;20156;-81
2021/12/15 09:18:47;;;;;;;10.70;4.50;;;3.20;99.90;;;;;;4866961;29;20050;-82
2021/12/15 09:21:19;;;;;;;14.00;5.13;;;3.50;99.90;;;;;;4867157;29;20506;-82
2021/12/15 09:23:47;;;;;;;10.02;4.22;;;3.20;99.90;;;;;;4878627;29;20061;-82
2021/12/15 09:26:15;;;;;;;7.45;3.78;;;3.40;99.90;;;;;;4878265;29;20048;-83
2021/12/15 09:28:46;;;;;;;8.30;4.03;;;3.20;99.90;;;;;;4878440;29;20061;-86
2021/12/15 09:31:16;;;;;;;7.78;3.55;;;3.00;99.90;;;;;;4877058;29;20061;-80
2021/12/15 09:33:45;;;;;;;4.07;2.80;;;3.10;99.90;;;;;;4878638;29;20382;-81
2021/12/15 09:36:19;;;;;;;5.85;3.10;;;3.30;99.90;;;;;;4878955;29;20053;-83
2021/12/15 09:38:51;;;;;;;6.72;2.80;;;3.20;99.90;;;;;;4877337;29;20080;-82
2021/12/15 09:41:20;;;;;;;8.40;3.03;;;3.30;99.90;;;;;;4889687;29;20523;-81
2021/12/15 09:43:51;;;;;;;7.10;2.42;;;3.20;99.90;;;;;;4871930;29;20053;-82
2021/12/15 09:46:40;;;;;;;5.75;3.10;;;3.10;99.90;;;;;;4878723;29;20061;-83
2021/12/15 10:01:51;;;;;;;5.85;2.70;;;3.30;99.90;;;;;;4878050;29;20124;-83
2021/12/15 10:03:17;;;;;;;6.78;3.53;;;3.40;99.90;;;;;;4876073;29;20060;-80
2021/12/15 10:05:53;;;;;;;9.25;3.47;;;3.30;99.90;;;;;;4876886;29;20049;-81
2021/12/15 10:19:34;;;;;;;9.13;5.78;;;3.00;99.90;;;;;;4873068;29;20521;-83
2021/12/15 10:22:10;;;;;;;;;;;3.10;99.90;;;;;;4874688;29;20049;-84
2021/12/15 10:24:48;;;;;;;5.63;4.35;;;3.20;99.90;;;;;;4867109;29;19927;-90
2021/12/15 10:27:32;;;;;;;5.10;4.50;;;3.10;99.90;;;;;;4867466;29;20559;-88
2021/12/15 10:30:18;;;;;;;5.65;3.38;;;3.60;99.90;;;;;;4883996;29;20064;-88
2021/12/15 10:32:49;;;;;;;5.82;3.85;;;3.20;99.90;;;;;;4873770;29;20147;-86
2021/12/15 10:35:27;;;;;;;8.65;3.50;;;3.20;99.90;;;;;;4862759;29;20060;-84
2021/12/15 10:38:25;;;;;;;5.55;3.80;;;3.40;99.90;;;;;;4891137;29;20056;-84
2021/12/15 10:41:03;;;;;;;5.50;3.67;;;3.20;99.90;;;;;;4873097;29;20057;-87
2021/12/15 10:43:38;;;;;;;3.30;2.63;;;3.10;99.90;;;;;;4856550;29;20435;-89
2021/12/15 10:46:14;;;;;;;4.22;3.47;;;3.10;99.90;;;;;;4870894;29;20494;-86
2021/12/15 10:48:56;;;;;;;8.05;3.58;;;3.00;99.90;;;;;;4876913;29;20061;-86
2021/12/15 10:51:38;;;;;;;9.38;3.60;;;3.00;99.90;;;;;;4876262;29;20060;-88
2021/12/15 10:54:15;;;;;;;4.65;3.25;;;3.80;99.90;;;;;;4875447;29;20056;-86
2021/12/15 10:56:58;;;;;;;5.43;3.03;;;3.80;99.90;;;;;;4875565;29;20045;-83
2021/12/15 10:59:33;;;;;;;6.10;2.95;;;3.30;99.90;;;;;;4876083;29;20057;-81
2021/12/15 11:02:05;;;;;;;5.22;3.38;;;3.20;99.90;;;;;;4875956;29;20676;-83
2021/12/15 11:04:42;;;;;;;5.90;2.90;;;3.30;99.90;;;;;;4857260;29;20152;-83
2021/12/15 11:07:29;;;;;;;7.18;3.30;;;3.40;99.90;;;;;;4867745;29;20057;-83
2021/12/15 11:10:02;;;;;;;5.68;3.40;;;3.50;99.90;;;;;;4866721;29;20084;-83
2021/12/15 11:12:36;;;;;;;14.70;4.22;;;3.40;99.90;;;;;;4871545;29;20053;-81
2021/12/15 11:15:10;;;;;;;9.70;6.20;;;3.70;99.90;;;;;;4884022;29;20052;-87
2021/12/15 11:17:43;;;;;;;13.82;6.07;;;3.00;99.90;;;;;;4894734;29;20056;-85
2021/12/15 11:20:28;;;;;;;25.52;8.57;;;3.20;99.90;;;;;;4889590;29;20071;-85
2021/12/15 11:23:01;;;;;;;29.03;10.57;;;4.40;99.90;;;;;;4872653;29;20053;-86
2021/12/15 11:25:38;;;;;;;24.52;10.15;;;3.20;99.90;;;;;;4860090;29;20144;-87
2021/12/15 11:28:15;;;;;;;26.13;11.13;;;3.30;99.90;;;;;;4861099;29;20064;-85
2021/12/15 11:30:49;;;;;;;28.80;11.75;;;3.10;99.90;;;;;;4889781;29;20100;-84
2021/12/15 11:33:23;;;;;;;31.88;11.55;;;3.20;99.90;;;;;;4859738;29;20533;-82
2021/12/15 11:35:57;;;;;;;35.42;14.27;;;3.40;99.90;;;;;;4877580;29;20144;-82
2021/12/15 11:38:33;;;;;;;42.00;15.85;;;3.40;99.90;;;;;;4861348;29;20053;-80
2021/12/15 11:41:13;;;;;;;27.15;11.80;;;3.00;99.90;;;;;;4877223;29;20151;-83
2021/12/15 11:43:50;;;;;;;28.67;13.38;;;3.20;99.90;;;;;;4872508;29;20148;-83
2021/12/15 11:46:32;;;;;;;31.48;12.98;;;2.50;99.90;;;;;;4923698;23;20049;-85
2021/12/15 11:49:05;;;;;;;23.77;10.93;;;3.20;99.90;;;;;;4852889;29;20304;-79
2021/12/15 11:51:39;;;;;;;21.05;11.20;;;3.60;99.90;;;;;;4850469;29;20152;-81
2021/12/15 11:54:20;;;;;;;23.05;10.80;;;3.20;99.90;;;;;;4839968;29;20058;-80
2021/12/15 11:56:50;;;;;;;17.98;8.77;;;3.00;99.90;;;;;;4854000;29;20058;-79
2021/12/15 11:59:27;;;;;;;21.88;9.77;;;3.20;99.90;;;;;;4836494;29;20511;-80
2021/12/15 12:02:06;;;;;;;23.17;11.07;;;3.10;99.90;;;;;;4839793;29;20087;-80
2021/12/15 12:04:40;;;;;;;24.80;10.75;;;3.10;99.90;;;;;;4837786;29;20130;-79
2021/12/15 12:07:42;;;;;;;20.27;8.70;;;3.00;99.90;;;;;;4837249;29;20454;-79
2021/12/15 12:10:49;;;;;;;17.35;8.85;;;2.90;99.90;;;;;;4842362;29;20456;-81
2021/12/15 12:13:23;;;;;;;14.25;8.63;;;3.00;99.90;;;;;;4831133;29;20061;-79
2021/12/15 12:16:09;;;;;;;14.48;8.98;;;2.50;99.90;;;;;;4837255;29;20118;-83
2021/12/15 12:21:53;;;;;;;19.98;8.93;;;2.60;99.90;;;;;;4787630;29;20053;-82
2021/12/15 12:24:21;;;;;;;21.60;8.30;;;2.60;99.90;;;;;;4799745;29;20501;-80
2021/12/15 12:26:52;;;;;;;24.23;8.60;;;2.50;99.90;;;;;;4827786;29;20058;-79
2021/12/15 12:29:20;;;;;;;18.63;8.57;;;2.60;99.90;;;;;;4846506;29;20057;-80
2021/12/15 12:40:21;;;;;;;31.38;9.57;;;2.60;99.90;;;;;;4764289;30;20146;-85
2021/12/15 12:42:51;;;;;;;21.02;9.88;;;1.70;99.90;;;;;;4753705;30;20121;-85
2021/12/15 12:45:36;;;;;;;25.42;9.77;;;3.30;99.90;;;;;;4765165;29;20063;-85
2021/12/15 12:49:24;;;;;;;18.73;8.07;;;3.00;99.90;;;;;;4777358;29;20806;-84
2021/12/15 13:02:05;;;;;;;22.73;8.20;;;3.20;99.90;;;;;;4832535;29;20081;-87
2021/12/15 13:04:41;;;;;;;21.90;9.25;;;3.00;99.90;;;;;;4829707;29;20057;-80
2021/12/15 13:11:18;;;;;;;18.88;8.45;;;4.80;99.90;;;;;;4813453;29;20045;-81
2021/12/15 13:14:01;;;;;;;19.15;7.07;;;2.90;99.90;;;;;;4837801;29;20049;-80
2021/12/15 13:16:37;;;;;;;16.67;7.80;;;2.80;99.90;;;;;;4838119;29;20049;-82
2021/12/15 13:19:16;;;;;;;18.30;7.45;;;3.00;99.90;;;;;;4838662;29;20161;-84
2021/12/15 13:21:56;;;;;;;16.08;6.85;;;2.90;99.90;;;;;;4837864;29;20050;-81
2021/12/15 13:30:50;;;;;;;17.33;8.93;;;2.90;99.90;;;;;;4834436;29;20133;-81
2021/12/15 13:33:31;;;;;;;21.17;8.15;;;2.80;99.90;;;;;;4841831;29;20058;-83
2021/12/15 13:36:05;;;;;;;15.65;7.18;;;2.80;99.90;;;;;;4838214;29;20057;-85
2021/12/15 13:38:37;;;;;;;24.65;8.25;;;2.90;99.90;;;;;;4839952;29;20174;-86
2021/12/15 13:41:41;;;;;;;20.67;8.77;;;4.60;99.90;;;;;;4826048;29;20051;-83
2021/12/15 13:44:24;;;;;;;20.27;8.25;;;2.90;99.90;;;;;;4833173;29;20096;-85
2021/12/15 13:46:56;;;;;;;24.00;7.80;;;3.00;99.90;;;;;;4840768;29;20527;-82
2021/12/15 13:49:45;;;;;;;17.15;7.93;;;3.10;99.90;;;;;;4834500;29;20428;-84
2021/12/15 13:52:34;;;;;;;20.55;7.80;;;2.80;99.90;;;;;;4837619;29;20487;-84
2021/12/15 13:55:21;;;;;;;17.80;7.82;;;1.60;99.90;;;;;;4833687;29;20534;-82
2021/12/15 13:58:17;;;;;;;15.43;8.23;;;3.10;99.90;;;;;;4816985;29;20045;-82
2021/12/15 14:00:51;;;;;;;18.42;7.13;;;2.90;99.90;;;;;;4836200;29;20061;-83
2021/12/15 14:03:26;;;;;;;12.48;7.35;;;3.20;99.90;;;;;;4834746;29;20435;-84
2021/12/15 14:05:59;;;;;;;17.63;7.28;;;3.00;99.90;;;;;;4828982;29;20066;-81
2021/12/15 14:08:38;;;;;;;17.17;8.20;;;2.40;99.90;;;;;;4835074;29;20050;-81
2021/12/15 14:11:19;;;;;;;15.18;8.48;;;4.60;99.90;;;;;;4834283;29;20057;-81
2021/12/15 14:14:02;;;;;;;12.07;5.78;;;3.00;99.90;;;;;;4852306;29;20045;-82
2021/12/15 14:16:48;;;;;;;14.05;6.07;;;3.00;99.90;;;;;;4835085;29;20068;-81
2021/12/15 14:19:24;;;;;;;11.68;6.78;;;3.50;99.90;;;;;;4838098;29;20054;-81
2021/12/15 14:21:57;;;;;;;11.07;5.68;;;3.20;99.90;;;;;;4838044;29;20046;-83
2021/12/15 14:24:25;;;;;;;11.13;5.85;;;3.20;99.90;;;;;;4855783;29;20396;-81
2021/12/15 14:26:53;;;;;;;14.52;6.50;;;3.40;99.90;;;;;;4835557;29;20046;-81
2021/12/15 14:29:26;;;;;;;12.05;5.50;;;3.20;99.90;;;;;;4837300;29;20153;-81
2021/12/15 14:31:58;;;;;;;15.50;5.28;;;3.40;99.90;;;;;;4837502;29;20144;-84
2021/12/15 14:34:29;;;;;;;15.48;6.75;;;3.20;99.90;;;;;;4834226;29;20055;-84
2021/12/15 14:37:06;;;;;;;11.65;5.00;;;3.00;99.90;;;;;;4848976;29;20134;-82
2021/12/15 14:39:37;;;;;;;11.77;5.65;;;5.50;99.90;;;;;;4832603;29;20081;-87
2021/12/15 14:42:10;;;;;;;10.38;6.10;;;3.70;99.90;;;;;;4837307;29;20148;-82
2021/12/15 14:44:44;;;;;;;15.73;5.28;;;3.20;99.90;;;;;;4836373;29;20057;-82
2021/12/15 14:47:17;;;;;;;13.13;5.13;;;3.50;99.90;;;;;;4835369;29;20061;-82
2021/12/15 14:49:50;;;;;;;7.78;4.88;;;3.20;99.90;;;;;;4837846;29;20053;-80
2021/12/15 14:52:22;;;;;;;;;;;3.90;99.90;;;;;;4849533;29;20061;-81
2021/12/15 14:54:54;;;;;;;8.75;4.47;;;4.00;99.90;;;;;;4834224;29;20364;-86
2021/12/15 14:57:26;;;;;;;8.25;4.13;;;4.90;99.90;;;;;;4834397;29;20137;-85
2021/12/15 15:00:00;;;;;;;11.18;4.38;;;3.80;99.90;;;;;;4836342;29;20061;-81
2021/12/15 15:02:34;;;;;;;8.85;4.75;;;3.30;99.90;;;;;;4821174;29;20515;-81
2021/12/15 15:05:08;;;;;;;8.02;4.05;;;3.60;99.90;;;;;;4850968;29;20557;-81